Time;durP1;ratioP1;P1;durP2;ratioP2;P2;SDS_P1;SDS_P2;PMS_P1;PMS_P2;Temp;Humidity;BMP_temperature;BMP_pressure;BME280_temperature;BME280_humidity;BME280_pressure;Samples;Min_cycle;Max_cycle;Signal;HPM_P1;HPM_P2
2022/06/04 00:00:36;;;;;;;8.38;4.45;;;;;;;23.30;41.93;102239.41;4999522;28;20041;-83
2022/06/04 00:03:02;;;;;;;6.55;4.95;;;;;;;23.46;42.02;102268.63;4968694;28;20052;-83
2022/06/04 00:05:30;;;;;;;5.80;4.70;;;;;;;23.44;42.07;102268.78;4998679;28;20974;-83
2022/06/04 00:07:58;;;;;;;6.68;4.78;;;;;;;23.45;42.03;102275.75;5000395;28;20140;-83
2022/06/04 00:15:56;;;;;;;7.30;4.55;;;;;;;23.43;41.82;102271.63;5000966;28;20045;-83
2022/06/04 00:18:23;;;;;;;5.88;4.68;;;;;;;23.35;41.99;102263.66;4983986;28;20105;-83
2022/06/04 00:20:50;;;;;;;7.30;5.25;;;;;;;23.24;42.02;102245.41;5002194;28;21151;-83
2022/06/04 00:23:16;;;;;;;6.85;5.05;;;;;;;23.34;41.99;102260.19;5002907;28;20071;-83
2022/06/04 00:25:45;;;;;;;7.13;5.00;;;;;;;23.35;42.14;102261.84;4998713;28;20054;-82
2022/06/04 00:28:11;;;;;;;7.05;4.93;;;;;;;23.35;42.20;102261.00;5003515;28;21720;-83
2022/06/04 00:30:38;;;;;;;5.88;4.97;;;;;;;23.17;42.02;102235.47;4984403;28;20072;-82
2022/06/04 00:33:04;;;;;;;6.82;5.22;;;;;;;23.37;41.89;102256.34;4982368;28;20034;-84
2022/06/04 00:35:30;;;;;;;8.10;4.90;;;;;;;23.08;41.89;102212.53;5001541;28;20069;-84
2022/06/04 00:37:57;;;;;;;7.57;5.00;;;;;;;23.36;42.11;102255.53;5000147;28;20068;-84
2022/06/04 00:40:40;;;;;;;14.20;5.63;;;;;;;22.77;42.02;102167.19;5002361;28;20044;-84
2022/06/04 00:43:06;;;;;;;6.22;5.00;;;;;;;23.29;42.02;102246.56;5002644;28;20046;-83
2022/06/04 00:45:34;;;;;;;7.13;5.18;;;;;;;23.36;41.89;102249.38;5000664;28;20725;-84
2022/06/04 00:48:03;;;;;;;6.30;4.40;;;;;;;23.30;41.90;102245.56;4966551;28;20052;-83
2022/06/04 00:50:31;;;;;;;5.70;4.75;;;;;;;23.33;42.22;102242.53;5000028;28;20071;-84
2022/06/04 00:52:59;;;;;;;7.97;4.93;;;;;;;23.33;41.91;102247.88;5001848;28;20120;-83
2022/06/04 00:55:28;;;;;;;5.97;4.38;;;;;;;23.33;42.21;102250.53;4998308;28;20111;-83
2022/06/04 00:58:25;;;;;;;6.00;4.80;;;;;;;23.32;42.03;102253.34;4997401;28;20042;-84
2022/06/04 01:01:07;;;;;;;5.72;4.72;;;;;;;23.32;42.03;102245.38;4999473;28;20449;-83
2022/06/04 01:04:06;;;;;;;9.13;4.68;;;;;;;23.30;42.04;102250.88;4986461;28;20094;-84
2022/06/04 01:06:39;;;;;;;6.80;4.90;;;;;;;23.30;41.85;102245.56;5001486;28;20095;-84
2022/06/04 01:09:26;;;;;;;6.07;4.53;;;;;;;23.31;42.18;102255.19;4997308;28;20038;-84
2022/06/04 01:12:19;;;;;;;6.40;5.10;;;;;;;23.29;42.28;102256.34;4997212;28;20034;-84
2022/06/04 01:15:14;;;;;;;7.38;5.38;;;;;;;23.27;42.02;102255.69;5000590;28;20101;-84
2022/06/04 01:18:11;;;;;;;6.10;4.70;;;;;;;23.29;42.30;102259.00;4980129;28;20125;-84
2022/06/04 01:20:52;;;;;;;9.32;5.15;;;;;;;23.28;42.19;102258.19;4998958;28;20499;-84
2022/06/04 01:24:00;;;;;;;7.88;5.47;;;;;;;23.27;42.08;102253.03;4998570;28;20088;-85
2022/06/04 01:26:57;;;;;;;7.25;4.85;;;;;;;23.08;42.02;102230.31;4998111;28;20038;-84
2022/06/04 01:29:38;;;;;;;5.88;4.45;;;;;;;23.24;42.07;102242.75;4998672;28;20042;-84
2022/06/04 01:32:30;;;;;;;6.47;4.22;;;;;;;23.24;42.09;102242.75;5000809;28;20046;-85
2022/06/04 01:35:06;;;;;;;5.80;4.80;;;;;;;23.06;42.12;102208.38;5000773;28;20111;-84
2022/06/04 01:37:41;;;;;;;6.53;4.82;;;;;;;23.23;42.07;102238.44;4982712;28;20081;-84
2022/06/04 01:42:59;;;;;;;6.32;4.50;;;;;;;23.12;42.19;102231.63;5000307;28;20040;-84
2022/06/04 01:45:27;;;;;;;7.03;4.68;;;;;;;23.11;42.05;102227.31;4994429;28;20045;-84
2022/06/04 01:47:56;;;;;;;6.63;5.10;;;;;;;23.24;42.35;102253.38;5001232;28;20125;-84
2022/06/04 01:50:27;;;;;;;5.57;4.22;;;;;;;23.19;41.99;102248.56;5000746;28;20046;-84
2022/06/04 01:52:56;;;;;;;6.40;4.50;;;;;;;23.23;42.05;102251.72;4997110;28;20026;-84
2022/06/04 01:55:27;;;;;;;7.43;4.88;;;;;;;23.22;42.06;102253.53;5001120;28;20085;-85
2022/06/04 01:57:58;;;;;;;7.78;5.13;;;;;;;23.24;41.97;102258.69;4997849;28;20186;-84
2022/06/04 02:00:29;;;;;;;7.47;4.47;;;;;;;23.03;42.33;102222.00;4996511;28;20503;-84
2022/06/04 02:03:02;;;;;;;9.05;5.18;;;;;;;23.22;42.20;102253.53;5000535;28;20034;-84
2022/06/04 02:05:37;;;;;;;6.82;5.10;;;;;;;23.10;42.05;102236.28;4999351;28;20038;-84
2022/06/04 02:08:05;;;;;;;9.48;5.00;;;;;;;23.17;42.15;102253.22;4998122;28;20041;-85
2022/06/04 02:10:35;;;;;;;7.72;5.10;;;;;;;23.19;41.97;102260.03;4999783;28;20045;-85
2022/06/04 02:13:08;;;;;;;6.78;4.82;;;;;;;23.13;42.04;102259.84;4997778;28;20092;-85
2022/06/04 02:16:12;;;;;;;8.82;4.95;;;;;;;23.18;42.11;102263.69;4997265;28;20496;-84
2022/06/04 02:18:38;;;;;;;6.10;4.65;;;;;;;23.10;42.44;102245.06;4938949;28;20041;-84
2022/06/04 02:21:04;;;;;;;9.00;5.47;;;;;;;23.04;41.86;102243.09;4986810;28;20061;-84
2022/06/04 02:23:30;;;;;;;5.30;4.80;;;;;;;23.19;42.07;102272.50;4997795;28;20214;-85
2022/06/04 02:25:56;;;;;;;8.13;5.18;;;;;;;22.94;42.26;102238.94;4959330;28;20046;-85
2022/06/04 02:28:23;;;;;;;8.75;5.07;;;;;;;23.07;42.43;102265.84;4985646;28;20038;-85
2022/06/04 02:31:09;;;;;;;6.97;5.03;;;;;;;23.18;41.93;102289.44;4999012;28;20405;-85
2022/06/04 02:34:03;;;;;;;5.75;4.78;;;;;;;22.84;42.20;102233.81;4997986;28;20033;-84
2022/06/04 02:36:55;;;;;;;11.40;6.30;;;;;;;22.96;42.10;102251.06;4997164;28;20040;-85
2022/06/04 02:39:30;;;;;;;8.23;5.05;;;;;;;23.16;42.06;102283.44;5003958;28;20053;-85
2022/06/04 02:42:01;;;;;;;8.50;4.88;;;;;;;23.05;42.17;102266.00;4997089;28;20113;-84
2022/06/04 02:44:29;;;;;;;7.40;5.10;;;;;;;22.96;42.26;102255.53;4996193;28;20041;-84
2022/06/04 02:47:01;;;;;;;8.20;5.75;;;;;;;22.88;42.26;102248.41;4981755;28;20034;-84
2022/06/04 02:49:56;;;;;;;7.35;5.85;;;;;;;23.08;42.30;102278.97;4997933;28;20033;-84
2022/06/04 02:52:23;;;;;;;6.60;4.90;;;;;;;23.15;42.09;102293.22;4982869;28;20060;-84
2022/06/04 02:55:10;;;;;;;7.03;5.43;;;;;;;22.99;42.19;102271.16;4998264;28;20119;-84
2022/06/04 02:57:39;;;;;;;6.97;4.93;;;;;;;23.11;42.13;102288.41;4992528;28;20042;-84
2022/06/04 03:00:06;;;;;;;7.95;4.93;;;;;;;23.12;42.33;102284.75;4996006;28;20030;-84
2022/06/04 03:02:34;;;;;;;7.90;5.22;;;;;;;23.11;42.24;102289.25;4997971;28;20209;-84
2022/06/04 03:05:08;;;;;;;6.70;4.53;;;;;;;23.10;41.92;102282.28;4995296;28;20038;-84
2022/06/04 03:07:34;;;;;;;7.85;5.45;;;;;;;23.00;42.29;102271.00;4999696;28;20048;-85
2022/06/04 03:10:08;;;;;;;6.13;4.70;;;;;;;23.01;41.90;102280.63;4962663;28;20038;-84
2022/06/04 03:12:34;;;;;;;8.32;5.15;;;;;;;23.06;42.08;102296.91;4996802;28;20038;-84
2022/06/04 03:14:59;;;;;;;7.57;4.82;;;;;;;23.12;42.25;102298.03;4995058;28;20050;-84
2022/06/04 03:17:25;;;;;;;7.72;5.55;;;;;;;23.09;42.03;102291.25;4999118;28;20045;-85
2022/06/04 03:19:50;;;;;;;10.02;5.60;;;;;;;23.09;42.25;102272.66;4964599;28;20037;-86
2022/06/04 03:22:17;;;;;;;9.25;5.38;;;;;;;23.07;42.07;102282.63;4999942;28;20084;-85
2022/06/04 03:24:42;;;;;;;6.03;5.10;;;;;;;22.99;41.98;102263.19;4997937;28;20069;-84
2022/06/04 03:27:08;;;;;;;6.22;5.05;;;;;;;23.06;42.11;102275.63;4992872;28;20642;-85
2022/06/04 03:29:34;;;;;;;7.65;5.53;;;;;;;23.07;41.93;102279.13;4990486;28;20038;-85
2022/06/04 03:31:59;;;;;;;7.18;5.22;;;;;;;22.89;42.25;102247.41;4996507;28;20595;-84
2022/06/04 03:34:25;;;;;;;8.05;4.88;;;;;;;23.09;41.91;102271.81;4995331;28;20128;-85
2022/06/04 03:36:50;;;;;;;8.57;5.32;;;;;;;23.00;41.98;102251.56;4995231;28;20132;-85
2022/06/04 03:39:16;;;;;;;8.05;5.95;;;;;;;22.84;41.96;102225.84;4978937;28;20042;-84
2022/06/04 03:41:41;;;;;;;7.45;4.90;;;;;;;23.01;42.21;102254.06;4991742;28;20138;-84
2022/06/04 03:44:07;;;;;;;8.00;5.40;;;;;;;23.05;41.93;102260.69;4994331;28;20049;-85
2022/06/04 03:46:32;;;;;;;6.57;4.93;;;;;;;22.84;42.03;102226.66;4996745;28;20172;-85
2022/06/04 03:48:58;;;;;;;7.30;4.82;;;;;;;23.03;42.10;102259.22;5000256;28;20049;-85
2022/06/04 03:51:26;;;;;;;8.65;5.05;;;;;;;23.06;42.07;102262.34;4982637;28;20034;-85
2022/06/04 03:53:52;;;;;;;7.05;5.00;;;;;;;23.05;42.23;102249.25;4994845;28;20026;-85
2022/06/04 03:56:17;;;;;;;6.97;5.03;;;;;;;23.04;41.96;102242.28;4998304;28;20085;-85
2022/06/04 03:58:43;;;;;;;9.07;5.88;;;;;;;22.93;42.18;102214.19;4981373;28;20136;-85
2022/06/04 04:01:24;;;;;;;7.80;5.00;;;;;;;23.05;42.10;102244.75;4994216;28;20432;-85
2022/06/04 04:03:50;;;;;;;7.28;5.25;;;;;;;23.05;41.97;102249.25;4995548;28;20030;-84
2022/06/04 04:06:22;;;;;;;8.73;5.35;;;;;;;22.98;41.97;102237.59;4997220;28;20649;-85
2022/06/04 04:08:48;;;;;;;7.38;5.05;;;;;;;23.04;41.87;102255.56;4999299;28;20085;-84
2022/06/04 04:11:17;;;;;;;7.88;5.10;;;;;;;22.98;42.00;102251.75;4998313;28;20540;-84
2022/06/04 04:13:44;;;;;;;8.73;5.15;;;;;;;22.97;42.09;102252.72;4999553;28;20037;-85
2022/06/04 04:16:14;;;;;;;7.20;5.57;;;;;;;23.04;42.04;102263.53;4995868;28;20421;-84
2022/06/04 04:18:39;;;;;;;8.23;4.85;;;;;;;23.04;41.95;102268.84;4999406;28;20034;-84
2022/06/04 04:21:12;;;;;;;8.20;5.10;;;;;;;23.02;42.24;102279.63;5001581;28;20848;-85
2022/06/04 04:23:38;;;;;;;7.68;4.82;;;;;;;22.84;42.10;102250.56;5001860;28;20052;-85
2022/06/04 04:26:07;;;;;;;8.80;4.88;;;;;;;23.03;41.87;102270.66;5002630;28;20037;-81
2022/06/04 04:28:33;;;;;;;7.55;4.95;;;;;;;22.93;42.19;102248.72;5001345;28;20651;-81
2022/06/04 04:30:59;;;;;;;6.07;4.50;;;;;;;22.87;42.08;102233.47;5003058;28;20858;-81
2022/06/04 04:33:25;;;;;;;8.52;4.90;;;;;;;23.01;42.25;102267.34;4978245;28;20042;-81
2022/06/04 04:35:52;;;;;;;7.05;4.75;;;;;;;23.01;42.18;102271.84;4999830;28;20034;-81
2022/06/04 04:38:18;;;;;;;7.18;4.82;;;;;;;23.02;41.91;102265.53;5001963;28;20050;-81
2022/06/04 04:40:45;;;;;;;8.10;5.32;;;;;;;22.75;42.12;102234.75;4987333;28;20045;-81
2022/06/04 04:43:11;;;;;;;7.35;5.47;;;;;;;23.00;42.21;102271.00;4999572;28;20459;-81
2022/06/04 04:45:37;;;;;;;6.57;4.68;;;;;;;23.00;41.91;102271.00;4997124;28;20044;-81
2022/06/04 04:48:03;;;;;;;5.82;4.65;;;;;;;22.87;41.99;102250.25;5003192;28;20034;-81
2022/06/04 04:50:38;;;;;;;7.07;4.90;;;;;;;22.89;41.92;102258.03;4999177;28;20076;-81
2022/06/04 04:53:07;;;;;;;9.10;5.50;;;;;;;22.89;42.13;102266.84;4999406;28;20029;-82
2022/06/04 04:55:33;;;;;;;9.07;5.32;;;;;;;23.02;41.95;102284.13;5002832;28;20118;-81
2022/06/04 04:58:00;;;;;;;7.20;4.93;;;;;;;23.02;41.82;102271.66;5004981;28;20056;-82
2022/06/04 05:00:26;;;;;;;11.13;5.85;;;;;;;22.77;41.68;102230.94;5002674;28;20935;-81
2022/06/04 05:02:51;;;;;;;7.45;4.65;;;;;;;23.01;42.12;102269.19;5000769;28;20053;-81
2022/06/04 05:05:17;;;;;;;7.90;4.85;;;;;;;23.02;41.96;102271.66;5003115;28;20400;-81
2022/06/04 05:07:44;;;;;;;7.38;5.32;;;;;;;22.97;42.04;102273.13;4995752;28;20111;-81
2022/06/04 05:10:11;;;;;;;5.70;4.30;;;;;;;23.01;41.90;102285.13;5001755;28;20053;-81
2022/06/04 05:12:36;;;;;;;7.53;5.05;;;;;;;22.86;41.99;102267.16;4986228;28;20026;-82
2022/06/04 05:15:03;;;;;;;6.38;4.63;;;;;;;23.02;41.95;102292.91;5002794;28;20373;-82
2022/06/04 05:17:28;;;;;;;6.47;4.88;;;;;;;22.84;42.08;102268.34;4983423;28;20239;-82
2022/06/04 05:19:54;;;;;;;7.03;4.78;;;;;;;22.90;41.92;102271.16;4994167;28;20037;-81
2022/06/04 05:22:19;;;;;;;6.68;4.80;;;;;;;22.38;42.04;102198.88;5000591;28;20041;-82
2022/06/04 05:24:45;;;;;;;7.13;4.78;;;;;;;22.74;42.07;102257.00;4998490;28;20045;-81
2022/06/04 05:27:10;;;;;;;5.40;4.20;;;;;;;22.94;41.88;102286.75;4997831;28;20041;-81
2022/06/04 05:29:37;;;;;;;5.97;4.40;;;;;;;23.00;42.06;102296.75;4995890;28;20045;-80
2022/06/04 05:32:06;;;;;;;6.50;5.05;;;;;;;23.01;41.90;102303.72;4986499;28;20125;-81
2022/06/04 05:34:32;;;;;;;6.15;4.60;;;;;;;23.00;41.99;102305.53;4997461;28;20361;-82
2022/06/04 05:36:58;;;;;;;5.53;4.43;;;;;;;23.03;41.95;102304.38;5004408;28;20053;-81
2022/06/04 05:39:24;;;;;;;6.50;4.47;;;;;;;23.02;41.84;102314.16;4997852;28;20069;-81
2022/06/04 05:41:51;;;;;;;6.38;4.40;;;;;;;23.02;42.09;102314.16;4995917;28;20064;-81
2022/06/04 05:44:18;;;;;;;4.70;4.20;;;;;;;23.02;41.94;102319.47;4982774;28;20530;-81
2022/06/04 05:46:44;;;;;;;8.50;4.70;;;;;;;23.03;42.24;102321.16;4999605;28;20104;-81
2022/06/04 05:49:13;;;;;;;6.20;4.50;;;;;;;22.98;42.02;102302.22;5003682;28;20077;-81
2022/06/04 05:51:41;;;;;;;5.25;4.38;;;;;;;23.03;41.82;102318.50;4997284;28;20056;-81
2022/06/04 05:54:07;;;;;;;8.57;5.22;;;;;;;23.04;42.05;102316.66;4999416;28;20511;-81
2022/06/04 05:56:37;;;;;;;6.70;4.90;;;;;;;22.80;42.12;102281.09;4994818;28;20722;-81
2022/06/04 05:59:10;;;;;;;7.95;4.55;;;;;;;23.02;42.21;102319.47;5001705;28;20682;-81
2022/06/04 06:01:41;;;;;;;6.82;4.70;;;;;;;23.02;42.07;102314.16;4999655;28;20503;-81
2022/06/04 06:04:08;;;;;;;6.72;4.63;;;;;;;23.03;41.87;102321.16;4997442;28;20038;-81
2022/06/04 06:06:37;;;;;;;6.30;4.32;;;;;;;23.05;42.11;102315.66;4995801;28;20048;-81
2022/06/04 06:09:05;;;;;;;7.32;4.78;;;;;;;22.92;42.10;102302.84;4997704;28;20125;-81
2022/06/04 06:11:31;;;;;;;6.63;3.92;;;;;;;22.80;41.86;102289.06;5000746;28;20029;-81
2022/06/04 06:13:57;;;;;;;7.55;4.88;;;;;;;23.03;41.98;102329.13;4965221;28;20069;-80
2022/06/04 06:16:26;;;;;;;5.82;4.63;;;;;;;23.04;41.97;102338.75;4998617;28;20030;-80
2022/06/04 06:18:53;;;;;;;5.88;4.55;;;;;;;23.02;42.16;102338.09;4997399;28;20029;-81
2022/06/04 06:21:22;;;;;;;5.65;4.38;;;;;;;23.01;42.00;102333.75;4993902;28;20133;-80
2022/06/04 06:23:49;;;;;;;5.85;4.30;;;;;;;23.06;42.18;102325.28;4997052;28;20044;-79
2022/06/04 06:26:18;;;;;;;8.13;5.00;;;;;;;23.06;42.01;102322.63;4996157;28;20040;-79
2022/06/04 06:28:44;;;;;;;5.63;4.32;;;;;;;23.06;42.02;102322.63;4993871;28;20041;-79
2022/06/04 06:31:12;;;;;;;6.78;4.68;;;;;;;23.04;42.05;102330.78;4993531;28;20029;-79
2022/06/04 06:33:38;;;;;;;4.60;3.90;;;;;;;22.83;42.06;102299.38;4981224;28;20033;-79
2022/06/04 06:36:07;;;;;;;6.50;4.38;;;;;;;22.68;42.20;102277.06;4995183;28;20056;-79
2022/06/04 06:38:32;;;;;;;7.28;5.10;;;;;;;23.07;42.29;102337.59;4996784;28;20050;-79
2022/06/04 06:40:58;;;;;;;7.30;4.82;;;;;;;23.07;42.15;102337.59;4993708;28;20121;-80
2022/06/04 06:43:34;;;;;;;6.53;4.50;;;;;;;23.08;42.44;102349.88;4995957;28;20042;-79
2022/06/04 06:46:15;;;;;;;7.70;4.43;;;;;;;23.04;42.18;102338.75;4997407;28;20046;-80
2022/06/04 06:48:42;;;;;;;9.25;4.57;;;;;;;23.00;42.13;102336.59;4997749;28;20057;-79
2022/06/04 06:51:11;;;;;;;6.07;4.20;;;;;;;23.12;42.06;102351.19;4997514;28;20045;-79
2022/06/04 06:53:37;;;;;;;5.95;4.13;;;;;;;23.10;42.06;102343.38;4997811;28;21996;-79
2022/06/04 06:56:19;;;;;;;6.22;4.60;;;;;;;23.14;42.03;102343.88;4996464;28;20069;-80
2022/06/04 06:58:46;;;;;;;7.95;4.88;;;;;;;23.14;42.18;102352.69;4997226;28;20125;-79
2022/06/04 07:01:12;;;;;;;6.35;4.50;;;;;;;23.10;42.10;102347.88;4996044;28;20045;-79
2022/06/04 07:03:38;;;;;;;7.70;4.18;;;;;;;23.15;42.14;102364.16;4995131;28;20396;-79
2022/06/04 07:06:07;;;;;;;7.15;4.97;;;;;;;23.03;42.33;102339.75;4995275;28;20076;-78
2022/06/04 07:08:36;;;;;;;6.25;4.50;;;;;;;23.02;42.55;102334.59;4982702;28;20050;-78
2022/06/04 07:11:03;;;;;;;6.55;4.30;;;;;;;23.12;42.93;102356.50;4997623;28;20042;-78
2022/06/04 07:13:29;;;;;;;5.47;4.22;;;;;;;23.05;42.88;102345.72;4982708;28;20133;-78
2022/06/04 07:15:54;;;;;;;9.20;4.65;;;;;;;23.22;42.67;102362.50;4996865;28;20129;-78
2022/06/04 07:18:20;;;;;;;7.25;4.63;;;;;;;23.17;42.56;102360.34;4998963;28;20042;-78
2022/06/04 07:20:46;;;;;;;7.50;4.68;;;;;;;23.19;42.69;102360.19;4998296;28;20034;-79
2022/06/04 07:23:12;;;;;;;9.20;4.57;;;;;;;23.14;43.02;102343.88;4982464;28;20050;-78
2022/06/04 07:25:41;;;;;;;7.05;4.40;;;;;;;23.29;42.79;102363.50;5001230;28;20037;-78
2022/06/04 07:28:09;;;;;;;7.80;4.75;;;;;;;23.17;42.98;102355.03;4997635;28;20133;-78
2022/06/04 07:30:35;;;;;;;9.48;5.00;;;;;;;23.32;42.65;102372.97;4997246;28;20037;-78
2022/06/04 07:33:01;;;;;;;6.78;4.18;;;;;;;23.31;42.92;102361.50;5001765;28;20609;-78
2022/06/04 07:35:26;;;;;;;8.43;5.35;;;;;;;23.34;42.80;102369.16;4993212;28;20034;-78
2022/06/04 07:37:52;;;;;;;7.85;4.82;;;;;;;23.35;43.01;102372.66;4966782;28;20072;-78
2022/06/04 07:40:18;;;;;;;6.28;4.30;;;;;;;23.31;42.58;102355.34;5002333;28;20034;-78
2022/06/04 07:42:45;;;;;;;7.30;4.47;;;;;;;23.34;42.81;102361.19;5003571;28;20571;-78
2022/06/04 07:45:11;;;;;;;8.00;4.68;;;;;;;23.16;42.58;102323.28;5001880;28;20046;-78
2022/06/04 07:47:39;;;;;;;7.40;4.55;;;;;;;23.39;42.43;102347.41;5004804;28;20049;-78
2022/06/04 07:50:05;;;;;;;7.63;4.75;;;;;;;23.39;42.62;102355.38;4982620;28;20050;-78
2022/06/04 07:52:30;;;;;;;6.82;4.75;;;;;;;23.42;42.74;102352.38;5003897;28;20045;-78
2022/06/04 07:54:56;;;;;;;9.13;4.90;;;;;;;23.31;42.54;102332.25;5006013;28;20037;-78
2022/06/04 07:57:21;;;;;;;7.10;4.47;;;;;;;23.42;42.47;102347.88;4966064;28;20101;-78
2022/06/04 07:59:48;;;;;;;7.43;5.22;;;;;;;23.31;42.56;102345.56;5001591;28;20084;-78
2022/06/04 08:02:14;;;;;;;8.32;5.07;;;;;;;23.35;42.66;102354.06;5002140;28;20048;-78
2022/06/04 08:04:40;;;;;;;8.27;5.32;;;;;;;23.46;42.59;102365.16;5001062;28;20068;-78
2022/06/04 08:07:05;;;;;;;11.40;5.35;;;;;;;23.47;42.45;102374.78;5002645;28;20036;-78
2022/06/04 08:09:32;;;;;;;7.95;4.70;;;;;;;23.49;42.49;102366.66;5005481;28;20100;-78
2022/06/04 08:11:59;;;;;;;9.20;4.78;;;;;;;23.50;42.44;102365.66;5001134;28;20506;-79
2022/06/04 08:14:25;;;;;;;8.25;4.78;;;;;;;23.48;42.67;102371.13;5002193;28;20036;-79
2022/06/04 08:16:56;;;;;;;10.90;5.45;;;;;;;23.46;43.85;102346.53;4996840;28;20473;-79
2022/06/04 08:19:24;;;;;;;9.70;5.22;;;;;;;23.52;44.21;102355.72;4995886;28;20038;-79
2022/06/04 08:21:51;;;;;;;7.80;4.57;;;;;;;23.55;43.70;102367.81;4998065;28;20357;-80
2022/06/04 08:24:18;;;;;;;8.05;5.10;;;;;;;23.45;43.79;102352.03;4959185;28;20112;-82
2022/06/04 08:26:45;;;;;;;10.70;4.95;;;;;;;23.66;43.56;102365.66;5001679;28;20540;-80
2022/06/04 08:29:12;;;;;;;8.95;4.80;;;;;;;23.81;44.47;102365.81;4995369;28;20045;-82
2022/06/04 08:31:38;;;;;;;8.50;4.82;;;;;;;23.86;44.42;102357.31;4970190;28;20109;-80
2022/06/04 08:34:04;;;;;;;8.13;5.80;;;;;;;23.90;44.27;102364.00;4967965;28;20045;-79
2022/06/04 08:36:30;;;;;;;11.60;4.97;;;;;;;23.88;43.86;102342.88;4994919;28;20122;-81
2022/06/04 08:38:56;;;;;;;7.90;5.15;;;;;;;24.01;43.87;102351.13;4958912;28;20066;-79
2022/06/04 08:41:31;;;;;;;7.70;5.10;;;;;;;23.99;43.91;102342.50;4949625;28;20049;-82
2022/06/04 08:44:27;;;;;;;10.55;4.85;;;;;;;23.95;43.60;102343.84;4981940;28;20045;-81
2022/06/04 08:47:18;;;;;;;9.32;5.10;;;;;;;23.99;43.44;102344.31;4933214;28;20534;-79
2022/06/04 08:49:52;;;;;;;7.65;4.57;;;;;;;24.01;43.22;102351.13;4991337;28;20062;-78
2022/06/04 08:52:22;;;;;;;10.57;4.72;;;;;;;24.10;43.05;102355.44;4936208;28;20377;-79
2022/06/04 08:57:54;;;;;;;7.90;5.05;;;;;;;24.17;42.63;102336.94;4982723;28;20088;-79
2022/06/04 09:00:27;;;;;;;10.07;4.88;;;;;;;24.19;42.59;102328.78;4981773;28;20031;-79
2022/06/04 09:03:15;;;;;;;7.25;4.55;;;;;;;24.16;42.52;102324.66;4955964;28;20030;-79
2022/06/04 09:06:02;;;;;;;8.00;4.80;;;;;;;24.25;42.50;102336.94;4961047;28;20049;-79
2022/06/04 09:08:53;;;;;;;7.40;4.65;;;;;;;24.27;42.57;102340.25;4949837;28;20063;-79
2022/06/04 09:11:41;;;;;;;6.93;4.93;;;;;;;24.28;42.46;102333.09;4948311;28;20789;-79
2022/06/04 09:14:33;;;;;;;8.52;5.22;;;;;;;24.16;42.12;102315.81;4976444;28;20698;-79
2022/06/04 09:17:04;;;;;;;7.97;4.70;;;;;;;24.31;42.32;102335.44;4978817;28;20109;-79
2022/06/04 09:19:36;;;;;;;7.13;4.55;;;;;;;24.32;42.14;102334.44;4945694;28;20054;-79
2022/06/04 09:22:11;;;;;;;7.05;4.57;;;;;;;24.28;42.33;102327.75;4980676;28;20046;-80
2022/06/04 09:24:37;;;;;;;6.30;4.57;;;;;;;24.35;42.29;102331.41;4980517;28;20477;-79
2022/06/04 09:27:32;;;;;;;7.88;4.93;;;;;;;24.37;42.03;102338.22;4977672;28;20042;-79
2022/06/04 09:30:10;;;;;;;7.57;4.88;;;;;;;24.28;42.02;102317.94;4962704;28;20042;-78
2022/06/04 09:33:01;;;;;;;9.82;5.05;;;;;;;24.39;41.96;102348.69;4975763;28;20537;-78
2022/06/04 09:35:30;;;;;;;7.43;4.95;;;;;;;24.32;42.00;102327.28;4943813;28;20041;-78
2022/06/04 09:37:56;;;;;;;6.72;4.80;;;;;;;24.37;41.96;102342.72;4990030;28;20082;-78
2022/06/04 09:40:27;;;;;;;9.02;5.13;;;;;;;24.41;41.81;102341.34;4961966;28;20120;-78
2022/06/04 09:43:12;;;;;;;6.38;4.90;;;;;;;24.49;41.89;102356.47;4985857;28;20048;-78
2022/06/04 09:45:37;;;;;;;6.93;4.60;;;;;;;24.49;41.93;102349.31;4985169;28;20086;-78
2022/06/04 09:48:14;;;;;;;7.20;5.07;;;;;;;24.46;42.14;102340.84;4999855;28;20445;-78
2022/06/04 09:50:41;;;;;;;7.35;4.88;;;;;;;24.52;41.67;102343.66;4961697;28;20595;-77
2022/06/04 09:53:09;;;;;;;11.00;4.65;;;;;;;24.52;41.76;102340.16;4978107;28;20050;-77
2022/06/04 09:55:37;;;;;;;7.18;4.90;;;;;;;24.45;41.74;102328.56;4944729;28;22084;-77
2022/06/04 09:58:07;;;;;;;6.53;4.93;;;;;;;24.53;41.59;102339.97;5000263;28;20046;-77
2022/06/04 10:00:35;;;;;;;7.40;4.53;;;;;;;24.55;41.58;102342.47;4945657;28;20115;-79
2022/06/04 10:03:10;;;;;;;6.80;4.30;;;;;;;24.56;41.49;102339.63;4985500;28;20433;-77
2022/06/04 10:05:36;;;;;;;8.10;4.47;;;;;;;24.48;41.54;102328.19;4999609;28;20702;-79
2022/06/04 10:08:12;;;;;;;8.38;4.75;;;;;;;24.58;41.63;102342.94;4962162;28;20042;-77
2022/06/04 10:10:42;;;;;;;6.90;5.10;;;;;;;24.59;41.76;102349.91;4999284;28;20910;-78
2022/06/04 10:15:57;;;;;;;7.47;4.63;;;;;;;24.61;41.63;102352.44;4993067;28;20041;-79
2022/06/04 10:18:30;;;;;;;8.52;5.00;;;;;;;24.62;41.62;102362.09;4940744;28;21740;-79
2022/06/04 10:21:03;;;;;;;7.18;5.22;;;;;;;24.61;41.69;102366.59;4999869;28;20053;-80
2022/06/04 10:23:39;;;;;;;5.85;4.30;;;;;;;24.70;41.66;102362.03;4955114;28;20069;-83
2022/06/04 10:26:14;;;;;;;7.50;4.57;;;;;;;24.71;41.78;102355.69;4995587;28;20030;-81
2022/06/04 10:29:11;;;;;;;6.25;4.53;;;;;;;24.89;41.48;102372.22;4957678;28;21880;-79
2022/06/04 10:31:49;;;;;;;9.57;4.50;;;;;;;24.94;41.45;102379.69;4978796;28;20541;-81
2022/06/04 10:34:35;;;;;;;6.95;4.53;;;;;;;24.97;41.57;102387.34;4944870;28;20484;-79
2022/06/04 10:37:32;;;;;;;9.82;4.88;;;;;;;24.99;41.68;102390.66;4994219;28;20045;-81
2022/06/04 10:40:20;;;;;;;7.65;4.55;;;;;;;25.02;41.52;102385.00;4954347;28;20124;-79
2022/06/04 10:43:00;;;;;;;6.75;4.80;;;;;;;24.97;41.62;102368.69;4994359;28;20042;-85
2022/06/04 10:45:43;;;;;;;8.52;4.45;;;;;;;25.06;41.72;102386.31;4957979;28;20044;-82
2022/06/04 10:48:34;;;;;;;6.90;4.88;;;;;;;25.10;41.51;102387.59;4992280;28;20527;-79
2022/06/04 10:51:27;;;;;;;11.68;4.60;;;;;;;24.85;42.26;102386.91;4943844;28;20033;-79
2022/06/04 10:54:00;;;;;;;12.93;5.25;;;;;;;24.76;42.28;102387.94;4993177;28;20872;-78
2022/06/04 10:56:42;;;;;;;11.70;5.00;;;;;;;24.70;42.28;102370.84;4953580;28;20070;-79
2022/06/04 10:59:14;;;;;;;9.20;5.07;;;;;;;24.68;42.75;102382.69;4995555;28;20504;-79
2022/06/04 11:01:57;;;;;;;7.97;4.90;;;;;;;24.63;41.79;102379.72;4955675;28;20420;-79
2022/06/04 11:04:39;;;;;;;12.10;4.90;;;;;;;24.58;41.33;102372.22;4995621;28;20041;-79
2022/06/04 11:07:26;;;;;;;8.25;5.10;;;;;;;24.64;41.32;102371.56;4940493;28;20053;-78
2022/06/04 11:09:54;;;;;;;7.47;4.78;;;;;;;24.52;41.39;102356.13;4974403;28;20037;-78
2022/06/04 11:12:48;;;;;;;12.30;5.20;;;;;;;24.57;41.46;102375.91;4954993;28;20113;-78
2022/06/04 11:15:35;;;;;;;9.40;5.28;;;;;;;24.56;41.49;102371.56;5002724;28;20040;-77
2022/06/04 11:18:12;;;;;;;8.07;4.60;;;;;;;24.22;41.61;102323.13;4957117;28;20474;-77
2022/06/04 11:20:47;;;;;;;12.20;4.97;;;;;;;24.54;41.36;102367.44;4984951;28;20484;-77
2022/06/04 11:23:24;;;;;;;7.35;5.10;;;;;;;24.55;41.73;102371.75;4947217;28;20370;-78
2022/06/04 11:25:55;;;;;;;9.93;5.07;;;;;;;24.47;41.15;102339.84;4978078;28;20429;-78
2022/06/04 11:28:24;;;;;;;11.77;5.22;;;;;;;24.68;41.56;102356.88;4959638;28;20041;-80
2022/06/04 11:30:58;;;;;;;13.02;5.13;;;;;;;24.61;41.88;102337.28;4996089;28;20033;-79
2022/06/04 11:33:45;;;;;;;10.02;5.50;;;;;;;24.70;41.91;102354.88;4943597;28;20161;-80
2022/06/04 11:36:27;;;;;;;11.00;5.82;;;;;;;24.71;42.01;102359.19;4997069;28;20033;-81
2022/06/04 11:39:05;;;;;;;10.25;5.70;;;;;;;24.71;42.54;102361.84;4947079;28;20085;-82
2022/06/04 11:41:41;;;;;;;8.68;5.28;;;;;;;24.73;42.36;102358.19;4982677;28;20046;-82
2022/06/04 11:44:31;;;;;;;8.80;4.78;;;;;;;24.72;42.49;102352.03;4961314;28;20034;-81
2022/06/04 11:47:21;;;;;;;8.82;5.45;;;;;;;24.75;42.63;102358.81;4995812;28;20062;-81
2022/06/04 11:50:13;;;;;;;10.80;5.70;;;;;;;24.63;42.34;102345.09;4959143;28;20034;-83
2022/06/04 11:52:51;;;;;;;11.30;5.22;;;;;;;24.76;41.84;102363.97;4969266;28;20058;-83
2022/06/04 11:55:33;;;;;;;12.00;5.72;;;;;;;24.70;42.08;102340.72;4947231;28;20096;-82
2022/06/04 11:58:08;;;;;;;9.30;5.40;;;;;;;24.88;41.87;102362.59;4999071;28;20038;-82
2022/06/04 12:00:42;;;;;;;9.63;4.93;;;;;;;24.89;41.71;102364.25;4934370;28;20708;-82